sensor_id;sensor_type;location;lat;lon;timestamp;pressure;altitude;pressure_sealevel;temperature;humidity
7264;BME280;3673;52.480;13.348;2023-03-18T00:02:02;100615.28;;;13.84;36.02
7264;BME280;3673;52.480;13.348;2023-03-18T00:04:29;100617.88;;;13.86;36.00
7264;BME280;3673;52.480;13.348;2023-03-18T00:06:56;100612.78;;;13.75;36.15
7264;BME280;3673;52.480;13.348;2023-03-18T00:09:23;100626.50;;;13.96;35.94
7264;BME280;3673;52.480;13.348;2023-03-18T00:11:50;100627.56;;;13.84;36.27
7264;BME280;3673;52.480;13.348;2023-03-18T00:14:17;100619.41;;;13.99;35.54
7264;BME280;3673;52.480;13.348;2023-03-18T00:16:45;100618.59;;;13.96;36.10
7264;BME280;3673;52.480;13.348;2023-03-18T00:19:12;100618.31;;;14.14;35.76
7264;BME280;3673;52.480;13.348;2023-03-18T00:21:38;100621.22;;;13.96;35.78
7264;BME280;3673;52.480;13.348;2023-03-18T00:24:06;100613.50;;;13.85;36.13
7264;BME280;3673;52.480;13.348;2023-03-18T00:26:32;100617.09;;;13.81;36.14
7264;BME280;3673;52.480;13.348;2023-03-18T00:29:00;100607.44;;;13.81;36.18
7264;BME280;3673;52.480;13.348;2023-03-18T00:31:27;100600.94;;;14.02;35.95
7264;BME280;3673;52.480;13.348;2023-03-18T00:33:55;100613.41;;;13.92;35.72
7264;BME280;3673;52.480;13.348;2023-03-18T00:36:22;100619.63;;;13.87;36.01
7264;BME280;3673;52.480;13.348;2023-03-18T00:38:52;100611.78;;;13.84;35.97
7264;BME280;3673;52.480;13.348;2023-03-18T00:41:23;100611.25;;;13.62;36.60
7264;BME280;3673;52.480;13.348;2023-03-18T00:43:50;100608.34;;;13.79;36.15
7264;BME280;3673;52.480;13.348;2023-03-18T00:46:21;100608.25;;;13.86;36.05
7264;BME280;3673;52.480;13.348;2023-03-18T00:48:49;100607.59;;;13.72;36.13
7264;BME280;3673;52.480;13.348;2023-03-18T00:51:19;100608.88;;;14.01;36.13
7264;BME280;3673;52.480;13.348;2023-03-18T00:53:48;100603.03;;;13.82;36.08
7264;BME280;3673;52.480;13.348;2023-03-18T00:56:20;100609.19;;;13.82;36.08
7264;BME280;3673;52.480;13.348;2023-03-18T00:58:54;100606.72;;;13.73;36.27
7264;BME280;3673;52.480;13.348;2023-03-18T01:01:22;100602.16;;;13.83;36.16
7264;BME280;3673;52.480;13.348;2023-03-18T01:03:50;100598.56;;;13.88;35.82
7264;BME280;3673;52.480;13.348;2023-03-18T01:06:21;100598.94;;;13.67;36.10
7264;BME280;3673;52.480;13.348;2023-03-18T01:08:49;100612.13;;;13.61;36.25
7264;BME280;3673;52.480;13.348;2023-03-18T01:11:16;100603.09;;;13.80;36.00
7264;BME280;3673;52.480;13.348;2023-03-18T01:13:44;100598.72;;;13.79;35.91
7264;BME280;3673;52.480;13.348;2023-03-18T01:16:12;100599.00;;;13.61;36.05
7264;BME280;3673;52.480;13.348;2023-03-18T01:18:40;100607.59;;;13.74;36.01
7264;BME280;3673;52.480;13.348;2023-03-18T01:21:08;100598.69;;;13.81;36.06
7264;BME280;3673;52.480;13.348;2023-03-18T01:23:38;100594.34;;;13.78;36.04
7264;BME280;3673;52.480;13.348;2023-03-18T01:26:06;100599.97;;;13.57;36.68
7264;BME280;3673;52.480;13.348;2023-03-18T01:28:34;100602.84;;;13.39;36.44
7264;BME280;3673;52.480;13.348;2023-03-18T01:31:01;100594.50;;;13.69;36.42
7264;BME280;3673;52.480;13.348;2023-03-18T01:33:28;100596.16;;;13.75;35.93
7264;BME280;3673;52.480;13.348;2023-03-18T01:35:57;100589.19;;;13.72;36.05
7264;BME280;3673;52.480;13.348;2023-03-18T01:38:25;100594.22;;;13.86;35.89
7264;BME280;3673;52.480;13.348;2023-03-18T01:40:56;100583.97;;;13.69;36.19
7264;BME280;3673;52.480;13.348;2023-03-18T01:43:27;100585.28;;;13.43;36.41
7264;BME280;3673;52.480;13.348;2023-03-18T01:45:58;100591.09;;;13.61;36.10
7264;BME280;3673;52.480;13.348;2023-03-18T01:48:28;100587.69;;;13.56;36.04
7264;BME280;3673;52.480;13.348;2023-03-18T01:50:58;100583.19;;;13.64;36.03
7264;BME280;3673;52.480;13.348;2023-03-18T01:53:30;100582.41;;;13.58;36.12
7264;BME280;3673;52.480;13.348;2023-03-18T01:56:02;100592.91;;;13.58;36.26
7264;BME280;3673;52.480;13.348;2023-03-18T01:58:33;100588.47;;;13.63;36.20
7264;BME280;3673;52.480;13.348;2023-03-18T02:01:06;100589.56;;;13.50;35.95
7264;BME280;3673;52.480;13.348;2023-03-18T02:03:34;100593.66;;;13.67;36.08
7264;BME280;3673;52.480;13.348;2023-03-18T02:06:03;100599.25;;;13.46;36.25
7264;BME280;3673;52.480;13.348;2023-03-18T02:08:30;100595.38;;;13.68;36.11
7264;BME280;3673;52.480;13.348;2023-03-18T02:10:57;100601.50;;;13.69;36.00
7264;BME280;3673;52.480;13.348;2023-03-18T02:13:25;100599.81;;;13.65;35.85
7264;BME280;3673;52.480;13.348;2023-03-18T02:15:57;100594.50;;;13.69;35.94
7264;BME280;3673;52.480;13.348;2023-03-18T02:18:33;100586.25;;;13.90;35.69
7264;BME280;3673;52.480;13.348;2023-03-18T02:21:18;100589.41;;;13.59;35.86
7264;BME280;3673;52.480;13.348;2023-03-18T02:23:54;100593.63;;;13.70;35.73
7264;BME280;3673;52.480;13.348;2023-03-18T02:26:32;100596.25;;;13.69;35.94
7264;BME280;3673;52.480;13.348;2023-03-18T02:29:05;100595.53;;;13.61;35.81
7264;BME280;3673;52.480;13.348;2023-03-18T02:31:35;100589.56;;;13.50;36.38
7264;BME280;3673;52.480;13.348;2023-03-18T02:34:04;100593.56;;;13.72;35.55
7264;BME280;3673;52.480;13.348;2023-03-18T02:36:32;100595.44;;;13.65;36.04
7264;BME280;3673;52.480;13.348;2023-03-18T02:39:02;100593.50;;;13.76;35.97
7264;BME280;3673;52.480;13.348;2023-03-18T02:41:32;100590.00;;;13.74;35.86
7264;BME280;3673;52.480;13.348;2023-03-18T02:44:00;100593.50;;;13.76;35.91
7264;BME280;3673;52.480;13.348;2023-03-18T02:46:35;100591.97;;;13.62;35.86
7264;BME280;3673;52.480;13.348;2023-03-18T02:49:07;100587.38;;;13.77;35.81
7264;BME280;3673;52.480;13.348;2023-03-18T02:51:36;100590.59;;;13.91;35.91
7264;BME280;3673;52.480;13.348;2023-03-18T02:54:06;100580.25;;;13.84;35.72
7264;BME280;3673;52.480;13.348;2023-03-18T02:56:35;100585.78;;;13.67;35.92
7264;BME280;3673;52.480;13.348;2023-03-18T02:59:02;100584.78;;;13.73;35.67
7264;BME280;3673;52.480;13.348;2023-03-18T03:01:32;100582.94;;;13.81;35.80
7264;BME280;3673;52.480;13.348;2023-03-18T03:04:00;100575.94;;;13.78;35.70
7264;BME280;3673;52.480;13.348;2023-03-18T03:06:27;100568.19;;;13.71;35.65
7264;BME280;3673;52.480;13.348;2023-03-18T03:08:54;100577.16;;;13.58;36.20
7264;BME280;3673;52.480;13.348;2023-03-18T03:11:22;100579.66;;;13.65;35.67
7264;BME280;3673;52.480;13.348;2023-03-18T03:13:49;100587.38;;;13.76;35.67
7264;BME280;3673;52.480;13.348;2023-03-18T03:16:17;100588.25;;;13.76;35.80
7264;BME280;3673;52.480;13.348;2023-03-18T03:18:45;100594.09;;;13.92;35.55
7264;BME280;3673;52.480;13.348;2023-03-18T03:21:13;100601.19;;;13.90;35.65
7264;BME280;3673;52.480;13.348;2023-03-18T03:23:41;100601.06;;;13.96;35.82
7264;BME280;3673;52.480;13.348;2023-03-18T03:26:08;100604.84;;;13.80;35.84
7264;BME280;3673;52.480;13.348;2023-03-18T03:28:35;100600.16;;;13.44;36.58
7264;BME280;3673;52.480;13.348;2023-03-18T03:31:02;100594.50;;;13.69;35.71
7264;BME280;3673;52.480;13.348;2023-03-18T03:33:29;100593.69;;;13.66;36.16
7264;BME280;3673;52.480;13.348;2023-03-18T03:35:58;100599.66;;;13.75;36.06
7264;BME280;3673;52.480;13.348;2023-03-18T03:38:25;100595.63;;;14.07;35.69
7264;BME280;3673;52.480;13.348;2023-03-18T03:40:52;100602.16;;;13.83;35.60
7264;BME280;3673;52.480;13.348;2023-03-18T03:43:19;100593.16;;;13.96;35.41
7264;BME280;3673;52.480;13.348;2023-03-18T03:45:45;100595.22;;;13.79;36.22
7264;BME280;3673;52.480;13.348;2023-03-18T03:48:12;100591.81;;;13.72;36.10
7264;BME280;3673;52.480;13.348;2023-03-18T03:50:39;100589.28;;;13.65;35.97
7264;BME280;3673;52.480;13.348;2023-03-18T03:53:08;100599.91;;;13.60;35.83
7264;BME280;3673;52.480;13.348;2023-03-18T03:55:35;100595.25;;;13.77;35.65
7264;BME280;3673;52.480;13.348;2023-03-18T03:58:03;100590.94;;;13.73;35.74
7264;BME280;3673;52.480;13.348;2023-03-18T04:00:30;100599.59;;;13.78;35.84
7264;BME280;3673;52.480;13.348;2023-03-18T04:02:57;100591.59;;;13.84;35.55
7264;BME280;3673;52.480;13.348;2023-03-18T04:05:24;100592.69;;;13.71;35.74
7264;BME280;3673;52.480;13.348;2023-03-18T04:07:52;100591.09;;;13.63;35.57
7264;BME280;3673;52.480;13.348;2023-03-18T04:10:21;100596.19;;;13.72;35.88
7264;BME280;3673;52.480;13.348;2023-03-18T04:12:48;100601.41;;;13.76;35.60
7264;BME280;3673;52.480;13.348;2023-03-18T04:15:18;100607.59;;;13.74;35.60
7264;BME280;3673;52.480;13.348;2023-03-18T04:17:46;100612.69;;;13.81;35.32
7264;BME280;3673;52.480;13.348;2023-03-18T04:20:13;100620.63;;;13.80;35.42
7264;BME280;3673;52.480;13.348;2023-03-18T04:22:40;100617.06;;;13.82;35.47
7264;BME280;3673;52.480;13.348;2023-03-18T04:25:08;100608.13;;;13.94;35.46
7264;BME280;3673;52.480;13.348;2023-03-18T04:27:38;100617.19;;;13.75;35.61
7264;BME280;3673;52.480;13.348;2023-03-18T04:30:06;100612.88;;;13.71;35.65
7264;BME280;3673;52.480;13.348;2023-03-18T04:32:34;100613.59;;;13.80;35.55
7264;BME280;3673;52.480;13.348;2023-03-18T04:35:01;100610.09;;;13.80;35.70
7264;BME280;3673;52.480;13.348;2023-03-18T04:37:28;100615.31;;;13.83;35.63
7264;BME280;3673;52.480;13.348;2023-03-18T04:39:55;100618.00;;;13.80;35.24
7264;BME280;3673;52.480;13.348;2023-03-18T04:42:22;100621.44;;;13.83;35.19
7264;BME280;3673;52.480;13.348;2023-03-18T04:44:50;100617.19;;;13.75;35.32
7264;BME280;3673;52.480;13.348;2023-03-18T04:47:18;100627.41;;;13.93;35.30
7264;BME280;3673;52.480;13.348;2023-03-18T04:49:44;100629.22;;;13.89;35.15
7264;BME280;3673;52.480;13.348;2023-03-18T04:52:11;100629.50;;;13.71;35.35
7264;BME280;3673;52.480;13.348;2023-03-18T04:54:38;100629.19;;;13.92;35.00
7264;BME280;3673;52.480;13.348;2023-03-18T04:57:05;100632.84;;;13.84;35.17
7264;BME280;3673;52.480;13.348;2023-03-18T04:59:32;100633.78;;;13.80;35.40
7264;BME280;3673;52.480;13.348;2023-03-18T05:02:00;100626.16;;;13.62;35.58
7264;BME280;3673;52.480;13.348;2023-03-18T05:04:27;100628.66;;;13.69;35.52
7264;BME280;3673;52.480;13.348;2023-03-18T05:06:54;100638.22;;;13.75;35.55
7264;BME280;3673;52.480;13.348;2023-03-18T05:09:21;100632.91;;;13.78;35.38
7264;BME280;3673;52.480;13.348;2023-03-18T05:11:48;100631.13;;;13.80;35.54
7264;BME280;3673;52.480;13.348;2023-03-18T05:14:15;100636.41;;;13.78;35.34
7264;BME280;3673;52.480;13.348;2023-03-18T05:16:41;100633.78;;;13.78;35.51
7264;BME280;3673;52.480;13.348;2023-03-18T05:19:10;100626.06;;;13.68;35.42
7264;BME280;3673;52.480;13.348;2023-03-18T05:21:37;100621.72;;;13.65;35.46
7264;BME280;3673;52.480;13.348;2023-03-18T05:24:04;100622.63;;;13.63;35.58
7264;BME280;3673;52.480;13.348;2023-03-18T05:26:31;100627.84;;;13.67;35.53
7264;BME280;3673;52.480;13.348;2023-03-18T05:28:58;100629.44;;;13.76;35.31
7264;BME280;3673;52.480;13.348;2023-03-18T05:31:25;100619.75;;;13.78;35.49
7264;BME280;3673;52.480;13.348;2023-03-18T05:33:51;100632.38;;;13.56;35.83
7264;BME280;3673;52.480;13.348;2023-03-18T05:36:19;100627.84;;;13.66;35.84
7264;BME280;3673;52.480;13.348;2023-03-18T05:38:46;100626.03;;;13.71;35.64
7264;BME280;3673;52.480;13.348;2023-03-18T05:41:13;100626.94;;;13.68;35.80
7264;BME280;3673;52.480;13.348;2023-03-18T05:43:40;100641.03;;;13.63;35.95
7264;BME280;3673;52.480;13.348;2023-03-18T05:46:07;100625.47;;;13.51;35.99
7264;BME280;3673;52.480;13.348;2023-03-18T05:48:34;100638.47;;;13.60;35.99
7264;BME280;3673;52.480;13.348;2023-03-18T05:51:01;100642.06;;;13.51;35.92
7264;BME280;3673;52.480;13.348;2023-03-18T05:53:30;100641.94;;;13.62;36.17
7264;BME280;3673;52.480;13.348;2023-03-18T05:55:56;100654.19;;;13.63;35.96
7264;BME280;3673;52.480;13.348;2023-03-18T05:58:24;100647.16;;;13.63;36.34
7264;BME280;3673;52.480;13.348;2023-03-18T06:00:56;100651.63;;;13.58;36.36
7264;BME280;3673;52.480;13.348;2023-03-18T06:03:23;100648.13;;;13.58;36.42
7264;BME280;3673;52.480;13.348;2023-03-18T06:05:51;100630.53;;;13.61;36.34
7264;BME280;3673;52.480;13.348;2023-03-18T06:08:18;100636.72;;;13.59;36.19
7264;BME280;3673;52.480;13.348;2023-03-18T06:10:47;100633.50;;;13.38;36.56
7264;BME280;3673;52.480;13.348;2023-03-18T06:13:13;100640.38;;;13.49;36.59
7264;BME280;3673;52.480;13.348;2023-03-18T06:15:41;100633.47;;;13.41;36.80
7264;BME280;3673;52.480;13.348;2023-03-18T06:18:07;100650.88;;;13.49;36.67
7264;BME280;3673;52.480;13.348;2023-03-18T06:20:34;100649.91;;;13.56;36.43
7264;BME280;3673;52.480;13.348;2023-03-18T06:23:01;100651.81;;;13.46;36.31
7264;BME280;3673;52.480;13.348;2023-03-18T06:25:28;100654.28;;;13.55;36.42
7264;BME280;3673;52.480;13.348;2023-03-18T06:27:56;100657.19;;;13.37;36.42
7264;BME280;3673;52.480;13.348;2023-03-18T06:30:23;100675.81;;;13.19;37.02
7264;BME280;3673;52.480;13.348;2023-03-18T06:32:50;100667.94;;;13.20;36.93
7264;BME280;3673;52.480;13.348;2023-03-18T06:35:18;100679.19;;;13.30;36.71
7264;BME280;3673;52.480;13.348;2023-03-18T06:37:44;100667.84;;;13.25;36.78
7264;BME280;3673;52.480;13.348;2023-03-18T06:40:11;100666.78;;;13.38;36.73
7264;BME280;3673;52.480;13.348;2023-03-18T06:42:38;100670.06;;;13.55;36.47
7264;BME280;3673;52.480;13.348;2023-03-18T06:45:08;100657.06;;;13.46;36.50
7264;BME280;3673;52.480;13.348;2023-03-18T06:47:35;100656.66;;;13.72;36.22
7264;BME280;3673;52.480;13.348;2023-03-18T06:50:02;100661.34;;;13.53;36.38
7264;BME280;3673;52.480;13.348;2023-03-18T06:52:29;100666.44;;;13.64;36.28
7264;BME280;3673;52.480;13.348;2023-03-18T06:54:56;100668.16;;;13.65;36.32
7264;BME280;3673;52.480;13.348;2023-03-18T06:57:22;100671.47;;;13.79;36.26
7264;BME280;3673;52.480;13.348;2023-03-18T06:59:49;100674.41;;;13.58;36.61
7264;BME280;3673;52.480;13.348;2023-03-18T07:02:18;100686.59;;;13.63;36.62
7264;BME280;3673;52.480;13.348;2023-03-18T07:04:47;100687.53;;;13.58;36.75
7264;BME280;3673;52.480;13.348;2023-03-18T07:07:14;100695.47;;;13.56;36.76
7264;BME280;3673;52.480;13.348;2023-03-18T07:09:42;100707.06;;;13.40;36.94
7264;BME280;3673;52.480;13.348;2023-03-18T07:12:10;100712.91;;;13.62;36.91
7264;BME280;3673;52.480;13.348;2023-03-18T07:14:38;100718.59;;;13.30;37.35
7264;BME280;3673;52.480;13.348;2023-03-18T07:17:05;100712.19;;;13.51;36.99
7264;BME280;3673;52.480;13.348;2023-03-18T07:19:34;100711.00;;;13.71;36.76
7264;BME280;3673;52.480;13.348;2023-03-18T07:22:00;100709.41;;;13.61;36.85
7264;BME280;3673;52.480;13.348;2023-03-18T07:24:27;100705.94;;;13.61;37.02
7264;BME280;3673;52.480;13.348;2023-03-18T07:26:55;100710.91;;;13.79;36.88
7264;BME280;3673;52.480;13.348;2023-03-18T07:29:22;100701.16;;;13.87;37.26
7264;BME280;3673;52.480;13.348;2023-03-18T07:31:49;100704.63;;;13.90;37.06
7264;BME280;3673;52.480;13.348;2023-03-18T07:34:16;100710.56;;;14.02;36.64
7264;BME280;3673;52.480;13.348;2023-03-18T07:36:45;100706.88;;;14.12;36.53
7264;BME280;3673;52.480;13.348;2023-03-18T07:39:11;100702.50;;;14.12;36.47
7264;BME280;3673;52.480;13.348;2023-03-18T07:41:38;100713.69;;;14.25;36.31
7264;BME280;3673;52.480;13.348;2023-03-18T07:44:05;100717.59;;;14.55;36.09
7264;BME280;3673;52.480;13.348;2023-03-18T07:46:32;100718.69;;;14.43;36.34
7264;BME280;3673;52.480;13.348;2023-03-18T07:48:59;100722.31;;;14.36;36.46
7264;BME280;3673;52.480;13.348;2023-03-18T07:51:26;100725.47;;;14.58;35.96
7264;BME280;3673;52.480;13.348;2023-03-18T07:53:54;100734.72;;;14.80;35.85
7264;BME280;3673;52.480;13.348;2023-03-18T07:56:22;100728.81;;;14.66;36.15
7264;BME280;3673;52.480;13.348;2023-03-18T07:58:49;100743.56;;;14.77;36.20
7264;BME280;3673;52.480;13.348;2023-03-18T08:01:16;100736.47;;;14.81;36.26
7264;BME280;3673;52.480;13.348;2023-03-18T08:03:44;100736.72;;;14.66;36.55
7264;BME280;3673;52.480;13.348;2023-03-18T08:06:11;100748.53;;;14.92;36.08
7264;BME280;3673;52.480;13.348;2023-03-18T08:08:41;100741.09;;;15.13;36.12
7264;BME280;3673;52.480;13.348;2023-03-18T08:11:10;100734.06;;;15.13;35.96
7264;BME280;3673;52.480;13.348;2023-03-18T08:13:38;100750.72;;;15.15;36.13
7264;BME280;3673;52.480;13.348;2023-03-18T08:16:06;100732.88;;;15.29;36.05
7264;BME280;3673;52.480;13.348;2023-03-18T08:18:33;100742.31;;;14.95;36.82
7264;BME280;3673;52.480;13.348;2023-03-18T08:21:01;100736.66;;;15.15;36.42
7264;BME280;3673;52.480;13.348;2023-03-18T08:23:27;100745.97;;;15.34;36.19
7264;BME280;3673;52.480;13.348;2023-03-18T08:25:54;100743.94;;;15.46;36.38
7264;BME280;3673;52.480;13.348;2023-03-18T08:28:22;100745.97;;;15.32;36.85
7264;BME280;3673;52.480;13.348;2023-03-18T08:30:53;100750.97;;;15.48;36.47
7264;BME280;3673;52.480;13.348;2023-03-18T08:33:20;100744.56;;;15.61;36.07
7264;BME280;3673;52.480;13.348;2023-03-18T08:35:48;100750.13;;;15.87;35.75
7264;BME280;3673;52.480;13.348;2023-03-18T08:38:17;100750.06;;;16.27;35.44
7264;BME280;3673;52.480;13.348;2023-03-18T08:40:44;100753.53;;;16.29;35.55
7264;BME280;3673;52.480;13.348;2023-03-18T08:43:11;100746.88;;;16.48;35.11
7264;BME280;3673;52.480;13.348;2023-03-18T08:45:40;100754.75;;;16.51;35.16
7264;BME280;3673;52.480;13.348;2023-03-18T08:48:07;100742.72;;;16.39;35.76
7264;BME280;3673;52.480;13.348;2023-03-18T08:50:35;100740.38;;;16.27;35.85
7264;BME280;3673;52.480;13.348;2023-03-18T08:53:03;100734.13;;;16.67;35.18
7264;BME280;3673;52.480;13.348;2023-03-18T08:55:32;100743.59;;;17.08;34.68
7264;BME280;3673;52.480;13.348;2023-03-18T08:58:00;100749.31;;;17.23;34.38
7264;BME280;3673;52.480;13.348;2023-03-18T09:00:29;100756.75;;;17.09;34.80
7264;BME280;3673;52.480;13.348;2023-03-18T09:02:57;100764.28;;;17.24;34.57
7264;BME280;3673;52.480;13.348;2023-03-18T09:05:24;100762.22;;;17.03;34.93
7264;BME280;3673;52.480;13.348;2023-03-18T09:07:51;100770.50;;;17.22;34.65
7264;BME280;3673;52.480;13.348;2023-03-18T09:10:19;100770.44;;;17.57;34.11
7264;BME280;3673;52.480;13.348;2023-03-18T09:12:46;100763.03;;;17.97;33.63
7264;BME280;3673;52.480;13.348;2023-03-18T09:15:15;100754.66;;;17.82;33.81
7264;BME280;3673;52.480;13.348;2023-03-18T09:17:44;100763.16;;;17.33;34.58
7264;BME280;3673;52.480;13.348;2023-03-18T09:20:15;100764.72;;;17.71;34.14
7264;BME280;3673;52.480;13.348;2023-03-18T09:22:43;100762.41;;;17.60;34.74
7264;BME280;3673;52.480;13.348;2023-03-18T09:25:11;100766.53;;;17.69;34.61
7264;BME280;3673;52.480;13.348;2023-03-18T09:27:38;100765.03;;;17.60;34.90
7264;BME280;3673;52.480;13.348;2023-03-18T09:30:07;100770.16;;;17.66;35.47
7264;BME280;3673;52.480;13.348;2023-03-18T09:32:34;100772.78;;;17.66;34.78
7264;BME280;3673;52.480;13.348;2023-03-18T09:35:01;100772.22;;;18.14;34.70
7264;BME280;3673;52.480;13.348;2023-03-18T09:37:29;100767.56;;;17.94;34.33
7264;BME280;3673;52.480;13.348;2023-03-18T09:39:56;100774.81;;;18.43;33.94
7264;BME280;3673;52.480;13.348;2023-03-18T09:42:40;100779.22;;;18.70;33.30
7264;BME280;3673;52.480;13.348;2023-03-18T09:45:21;100782.72;;;19.22;32.41
7264;BME280;3673;52.480;13.348;2023-03-18T09:51:00;100782.16;;;20.08;31.42
7264;BME280;3673;52.480;13.348;2023-03-18T09:53:39;100777.88;;;20.26;30.89
7264;BME280;3673;52.480;13.348;2023-03-18T09:56:14;100772.31;;;20.75;30.15
7264;BME280;3673;52.480;13.348;2023-03-18T09:58:47;100778.03;;;20.86;29.97
7264;BME280;3673;52.480;13.348;2023-03-18T10:01:18;100777.94;;;21.30;29.21
7264;BME280;3673;52.480;13.348;2023-03-18T10:03:49;100771.53;;;21.54;28.96
7264;BME280;3673;52.480;13.348;2023-03-18T10:06:18;100779.03;;;21.65;28.86
7264;BME280;3673;52.480;13.348;2023-03-18T10:08:54;100781.22;;;21.55;28.89
7264;BME280;3673;52.480;13.348;2023-03-18T10:11:28;100780.53;;;21.89;28.61
7264;BME280;3673;52.480;13.348;2023-03-18T10:14:23;100775.19;;;21.89;28.70
7264;BME280;3673;52.480;13.348;2023-03-18T10:17:02;100774.53;;;21.65;28.83
7264;BME280;3673;52.480;13.348;2023-03-18T10:19:31;100776.00;;;22.28;28.25
7264;BME280;3673;52.480;13.348;2023-03-18T10:22:13;100762.84;;;22.06;28.82
7264;BME280;3673;52.480;13.348;2023-03-18T10:24:52;100765.06;;;22.16;28.58
7264;BME280;3673;52.480;13.348;2023-03-18T10:27:35;100767.50;;;22.20;28.52
7264;BME280;3673;52.480;13.348;2023-03-18T10:30:29;100767.72;;;22.34;28.28
7264;BME280;3673;52.480;13.348;2023-03-18T10:33:06;100772.06;;;21.99;28.91
7264;BME280;3673;52.480;13.348;2023-03-18T10:35:44;100757.97;;;22.33;28.68
7264;BME280;3673;52.480;13.348;2023-03-18T10:38:18;100767.19;;;22.45;28.46
7264;BME280;3673;52.480;13.348;2023-03-18T10:40:50;100764.34;;;22.31;28.51
7264;BME280;3673;52.480;13.348;2023-03-18T10:43:20;100767.72;;;22.87;28.12
7264;BME280;3673;52.480;13.348;2023-03-18T10:45:58;100768.34;;;23.09;27.89
7264;BME280;3673;52.480;13.348;2023-03-18T10:48:31;100769.28;;;23.08;27.77
7264;BME280;3673;52.480;13.348;2023-03-18T10:51:08;100766.53;;;23.10;27.95
7264;BME280;3673;52.480;13.348;2023-03-18T10:53:42;100774.63;;;22.74;28.21
7264;BME280;3673;52.480;13.348;2023-03-18T10:56:13;100773.22;;;22.84;28.22
7264;BME280;3673;52.480;13.348;2023-03-18T10:58:41;100771.97;;;22.91;28.40
7264;BME280;3673;52.480;13.348;2023-03-18T11:01:10;100768.19;;;23.63;27.64
7264;BME280;3673;52.480;13.348;2023-03-18T11:03:41;100765.72;;;23.42;27.91
7264;BME280;3673;52.480;13.348;2023-03-18T11:06:16;100769.16;;;23.77;27.89
7264;BME280;3673;52.480;13.348;2023-03-18T11:08:47;100763.66;;;24.43;26.86
7264;BME280;3673;52.480;13.348;2023-03-18T11:11:23;100772.56;;;24.73;26.24
7264;BME280;3673;52.480;13.348;2023-03-18T11:13:52;100762.78;;;24.42;26.98
7264;BME280;3673;52.480;13.348;2023-03-18T11:16:26;100762.34;;;24.50;27.10
7264;BME280;3673;52.480;13.348;2023-03-18T11:18:55;100761.41;;;24.35;27.29
7264;BME280;3673;52.480;13.348;2023-03-18T11:21:24;100761.78;;;24.29;27.26
7264;BME280;3673;52.480;13.348;2023-03-18T11:23:56;100765.84;;;24.05;28.50
7264;BME280;3673;52.480;13.348;2023-03-18T11:26:48;100760.69;;;23.36;29.86
7264;BME280;3673;52.480;13.348;2023-03-18T11:29:22;100755.03;;;23.42;29.10
7264;BME280;3673;52.480;13.348;2023-03-18T11:31:54;100753.78;;;23.15;29.80
7264;BME280;3673;52.480;13.348;2023-03-18T11:34:23;100758.72;;;22.54;30.44
7264;BME280;3673;52.480;13.348;2023-03-18T11:36:56;100758.31;;;22.97;30.40
7264;BME280;3673;52.480;13.348;2023-03-18T11:39:29;100754.81;;;23.30;29.86
7264;BME280;3673;52.480;13.348;2023-03-18T11:41:59;100773.28;;;23.00;30.39
7264;BME280;3673;52.480;13.348;2023-03-18T11:44:31;100765.59;;;22.77;30.72
7264;BME280;3673;52.480;13.348;2023-03-18T11:47:04;100761.06;;;22.43;31.35
7264;BME280;3673;52.480;13.348;2023-03-18T11:49:33;100766.56;;;22.57;31.63
7264;BME280;3673;52.480;13.348;2023-03-18T11:52:24;100763.19;;;22.53;31.81
7264;BME280;3673;52.480;13.348;2023-03-18T11:55:16;100757.59;;;23.77;30.33
7264;BME280;3673;52.480;13.348;2023-03-18T11:58:10;100753.22;;;24.54;28.86
7264;BME280;3673;52.480;13.348;2023-03-18T12:00:52;100758.69;;;24.37;29.16
7264;BME280;3673;52.480;13.348;2023-03-18T12:03:46;100767.38;;;24.86;28.40
7264;BME280;3673;52.480;13.348;2023-03-18T12:06:19;100772.31;;;25.51;27.76
7264;BME280;3673;52.480;13.348;2023-03-18T12:08:57;100776.97;;;25.48;27.90
7264;BME280;3673;52.480;13.348;2023-03-18T12:11:40;100773.19;;;25.22;28.67
7264;BME280;3673;52.480;13.348;2023-03-18T12:14:18;100752.66;;;25.79;28.19
7264;BME280;3673;52.480;13.348;2023-03-18T12:16:56;100767.38;;;26.00;27.54
7264;BME280;3673;52.480;13.348;2023-03-18T12:20:07;100751.69;;;26.08;27.36
7264;BME280;3673;52.480;13.348;2023-03-18T12:22:56;100751.31;;;26.00;27.80
7264;BME280;3673;52.480;13.348;2023-03-18T12:25:45;100750.09;;;25.92;27.77
7264;BME280;3673;52.480;13.348;2023-03-18T12:28:52;100754.94;;;26.67;26.73
7264;BME280;3673;52.480;13.348;2023-03-18T12:31:35;100759.84;;;27.00;26.72
7264;BME280;3673;52.480;13.348;2023-03-18T12:34:21;100763.59;;;26.85;26.80
7264;BME280;3673;52.480;13.348;2023-03-18T12:37:08;100753.75;;;26.32;27.47
7264;BME280;3673;52.480;13.348;2023-03-18T12:40:12;100759.47;;;26.79;27.01
7264;BME280;3673;52.480;13.348;2023-03-18T12:43:08;100763.19;;;26.91;26.69
7264;BME280;3673;52.480;13.348;2023-03-18T12:45:44;100760.66;;;27.65;25.68
7264;BME280;3673;52.480;13.348;2023-03-18T12:48:17;100750.41;;;28.32;24.51
7264;BME280;3673;52.480;13.348;2023-03-18T12:50:49;100753.47;;;28.15;24.99
7264;BME280;3673;52.480;13.348;2023-03-18T12:53:24;100749.53;;;26.94;26.81
7264;BME280;3673;52.480;13.348;2023-03-18T12:55:58;100751.59;;;27.03;26.57
7264;BME280;3673;52.480;13.348;2023-03-18T12:58:30;100742.25;;;27.59;25.93
7264;BME280;3673;52.480;13.348;2023-03-18T13:01:05;100753.97;;;27.33;26.54
7264;BME280;3673;52.480;13.348;2023-03-18T13:03:38;100751.72;;;27.65;26.24
7264;BME280;3673;52.480;13.348;2023-03-18T13:06:08;100744.25;;;28.30;25.26
7264;BME280;3673;52.480;13.348;2023-03-18T13:09:00;100745.94;;;29.13;24.36
7264;BME280;3673;52.480;13.348;2023-03-18T13:11:47;100742.66;;;28.51;25.25
7264;BME280;3673;52.480;13.348;2023-03-18T13:14:23;100735.75;;;28.23;25.39
7264;BME280;3673;52.480;13.348;2023-03-18T13:16:52;100739.91;;;29.09;24.37
7264;BME280;3673;52.480;13.348;2023-03-18T13:19:22;100735.06;;;28.69;24.72
7264;BME280;3673;52.480;13.348;2023-03-18T13:21:55;100740.16;;;28.95;24.84